Time;durP1;ratioP1;P1;durP2;ratioP2;P2;SDS_P1;SDS_P2;PMS_P1;PMS_P2;Temp;Humidity;BMP_temperature;BMP_pressure;BME280_temperature;BME280_humidity;BME280_pressure;Samples;Min_cycle;Max_cycle;Signal;HPM_P1;HPM_P2
2021/07/17 00:00:45;;;;;;;20.35;8.80;;;;;;;;;;4985988;28;20034;-65
2021/07/17 00:03:11;;;;;;;18.45;8.43;;;;;;;;;;4984278;28;20027;-65
2021/07/17 00:05:37;;;;;;;24.13;9.38;;;;;;;;;;4979066;28;20058;-65
2021/07/17 00:08:05;;;;;;;20.35;9.55;;;;;;;;;;4981209;28;20097;-65
2021/07/17 00:10:37;;;;;;;22.58;9.68;;;;;;;;;;4981365;28;20058;-66
2021/07/17 00:13:06;;;;;;;26.95;10.50;;;;;;;;;;4976955;28;20098;-66
2021/07/17 00:15:32;;;;;;;29.38;10.68;;;;;;;;;;4974394;28;20025;-66
2021/07/17 00:17:58;;;;;;;24.33;9.27;;;;;;;;;;4980832;28;20741;-66
2021/07/17 00:20:25;;;;;;;27.83;9.98;;;;;;;;;;4985810;28;20026;-66
2021/07/17 00:22:51;;;;;;;26.75;10.60;;;;;;;;;;4979481;28;20466;-66
2021/07/17 00:25:18;;;;;;;23.90;10.80;;;;;;;;;;4987449;28;20067;-66
2021/07/17 00:27:45;;;;;;;25.77;11.20;;;;;;;;;;4979781;28;20026;-67
2021/07/17 00:30:11;;;;;;;33.10;12.18;;;;;;;;;;4976296;28;20100;-67
2021/07/17 00:32:37;;;;;;;26.70;10.90;;;;;;;;;;4976077;28;20342;-66
2021/07/17 00:35:06;;;;;;;25.88;10.88;;;;;;;;;;4980687;28;20075;-66
2021/07/17 00:37:33;;;;;;;30.02;11.45;;;;;;;;;;4973714;28;20442;-66
2021/07/17 00:40:00;;;;;;;26.88;10.27;;;;;;;;;;4977928;28;20031;-66
2021/07/17 00:42:26;;;;;;;28.25;11.82;;;;;;;;;;4983243;28;20561;-66
2021/07/17 00:44:52;;;;;;;21.08;8.93;;;;;;;;;;4982468;28;20027;-66
2021/07/17 00:47:19;;;;;;;28.90;11.52;;;;;;;;;;4979546;28;20039;-65
2021/07/17 00:49:45;;;;;;;33.42;11.93;;;;;;;;;;4981326;28;20054;-66
2021/07/17 00:52:11;;;;;;;30.73;11.45;;;;;;;;;;4981799;28;20374;-66
2021/07/17 00:54:38;;;;;;;28.20;10.57;;;;;;;;;;4982807;28;20030;-66
2021/07/17 00:57:05;;;;;;;33.33;12.05;;;;;;;;;;4975853;28;20310;-66
2021/07/17 00:59:37;;;;;;;26.48;11.45;;;;;;;;;;4983936;28;20696;-65
2021/07/17 01:02:03;;;;;;;26.42;10.38;;;;;;;;;;4982085;28;20026;-66
2021/07/17 01:04:30;;;;;;;30.08;11.00;;;;;;;;;;4981587;28;20034;-66
2021/07/17 01:06:59;;;;;;;33.70;12.90;;;;;;;;;;4978766;28;20050;-66
2021/07/17 01:09:26;;;;;;;33.53;11.73;;;;;;;;;;4979549;28;20036;-66
2021/07/17 01:11:52;;;;;;;33.50;11.98;;;;;;;;;;4979258;28;20038;-66
2021/07/17 01:14:18;;;;;;;29.65;11.10;;;;;;;;;;4982790;28;20649;-66
2021/07/17 01:16:45;;;;;;;32.22;12.35;;;;;;;;;;4980801;28;20034;-66
2021/07/17 01:19:12;;;;;;;34.30;11.38;;;;;;;;;;4982058;28;20105;-66
2021/07/17 01:21:38;;;;;;;25.90;10.23;;;;;;;;;;4982387;28;20035;-66
2021/07/17 01:24:04;;;;;;;34.15;11.45;;;;;;;;;;4983869;28;20443;-66
2021/07/17 01:26:30;;;;;;;33.15;10.73;;;;;;;;;;4981366;28;20098;-66
2021/07/17 01:28:56;;;;;;;28.77;10.90;;;;;;;;;;4979344;28;20493;-66
2021/07/17 01:31:22;;;;;;;28.33;11.18;;;;;;;;;;4984061;28;20034;-66
2021/07/17 01:33:48;;;;;;;31.90;11.68;;;;;;;;;;4980111;28;20033;-66
2021/07/17 01:36:15;;;;;;;32.25;11.90;;;;;;;;;;4985967;28;20031;-66
2021/07/17 01:38:41;;;;;;;30.02;12.02;;;;;;;;;;4977499;28;20273;-66
2021/07/17 01:41:09;;;;;;;27.45;11.93;;;;;;;;;;4984768;28;20066;-66
2021/07/17 01:43:35;;;;;;;31.83;11.02;;;;;;;;;;4983537;28;20019;-66
2021/07/17 01:46:02;;;;;;;31.40;10.60;;;;;;;;;;4983850;28;20135;-66
2021/07/17 01:48:28;;;;;;;30.77;11.10;;;;;;;;;;4988325;28;20045;-66
2021/07/17 01:50:54;;;;;;;37.95;12.27;;;;;;;;;;4981966;28;20034;-66
2021/07/17 01:53:20;;;;;;;26.95;9.95;;;;;;;;;;4987654;28;20508;-66
2021/07/17 01:55:48;;;;;;;28.15;10.65;;;;;;;;;;4982700;28;20030;-65
2021/07/17 01:58:14;;;;;;;25.35;9.95;;;;;;;;;;4984443;28;20101;-66
2021/07/17 02:00:40;;;;;;;30.52;11.13;;;;;;;;;;4976175;28;20432;-66
2021/07/17 02:03:06;;;;;;;36.90;12.10;;;;;;;;;;4984149;28;20117;-66
2021/07/17 02:05:32;;;;;;;29.63;10.38;;;;;;;;;;4978370;28;20058;-66
2021/07/17 02:07:59;;;;;;;29.25;11.45;;;;;;;;;;4984572;28;20625;-66
2021/07/17 02:10:30;;;;;;;27.20;10.10;;;;;;;;;;4979188;28;20436;-66
2021/07/17 02:12:59;;;;;;;29.75;10.65;;;;;;;;;;4983566;28;20034;-66
2021/07/17 02:15:25;;;;;;;27.03;9.47;;;;;;;;;;4975183;28;20023;-66
2021/07/17 02:17:52;;;;;;;27.52;10.23;;;;;;;;;;4980379;28;20397;-66
2021/07/17 02:20:18;;;;;;;26.75;10.70;;;;;;;;;;4979912;28;20428;-66
2021/07/17 02:22:44;;;;;;;28.10;10.00;;;;;;;;;;4982169;28;20118;-65
2021/07/17 02:25:10;;;;;;;30.60;9.50;;;;;;;;;;4979050;28;20389;-66
2021/07/17 02:27:36;;;;;;;27.65;10.43;;;;;;;;;;4982749;28;20023;-66
2021/07/17 02:30:06;;;;;;;30.55;10.13;;;;;;;;;;4979123;28;20370;-66
2021/07/17 02:32:32;;;;;;;30.70;10.13;;;;;;;;;;4976004;28;20421;-66
2021/07/17 02:34:58;;;;;;;27.75;10.80;;;;;;;;;;4975651;28;20107;-66
2021/07/17 02:37:24;;;;;;;27.05;10.38;;;;;;;;;;4977652;28;20023;-66
2021/07/17 02:39:51;;;;;;;26.17;10.32;;;;;;;;;;4980312;28;20031;-66
2021/07/17 02:42:17;;;;;;;26.52;9.73;;;;;;;;;;4984748;28;20023;-66
2021/07/17 02:44:43;;;;;;;23.98;9.15;;;;;;;;;;4974660;28;20054;-66
2021/07/17 02:47:09;;;;;;;29.67;10.27;;;;;;;;;;4984537;28;20026;-66
2021/07/17 02:49:35;;;;;;;24.55;9.30;;;;;;;;;;4982560;28;20030;-66
2021/07/17 02:52:01;;;;;;;22.45;9.75;;;;;;;;;;4983103;28;20037;-66
2021/07/17 02:54:27;;;;;;;21.02;9.35;;;;;;;;;;4978589;28;20038;-66
2021/07/17 02:56:53;;;;;;;23.13;9.52;;;;;;;;;;4986746;28;20030;-66
2021/07/17 02:59:19;;;;;;;26.05;9.32;;;;;;;;;;4980425;28;20386;-66
2021/07/17 03:01:45;;;;;;;27.95;10.25;;;;;;;;;;4985803;28;20041;-66
2021/07/17 03:04:11;;;;;;;21.90;8.85;;;;;;;;;;4975465;28;20031;-66
2021/07/17 03:06:37;;;;;;;21.20;8.90;;;;;;;;;;4976618;28;20534;-65
2021/07/17 03:09:05;;;;;;;27.73;9.77;;;;;;;;;;4983803;28;20386;-66
2021/07/17 03:11:32;;;;;;;25.90;10.00;;;;;;;;;;4977305;28;20026;-66
2021/07/17 03:13:58;;;;;;;22.70;9.52;;;;;;;;;;4985380;28;20092;-66
2021/07/17 03:16:25;;;;;;;24.25;9.73;;;;;;;;;;4976092;28;20027;-66
2021/07/17 03:18:52;;;;;;;28.48;9.57;;;;;;;;;;4980515;28;20498;-66
2021/07/17 03:21:19;;;;;;;20.95;8.63;;;;;;;;;;4987779;28;20107;-66
2021/07/17 03:23:45;;;;;;;20.65;8.93;;;;;;;;;;4975539;28;20114;-66
2021/07/17 03:26:12;;;;;;;21.42;8.23;;;;;;;;;;4986989;28;20112;-65
2021/07/17 03:28:38;;;;;;;20.98;8.27;;;;;;;;;;4984253;28;20034;-66
2021/07/17 03:31:04;;;;;;;20.17;8.38;;;;;;;;;;4979033;28;20027;-66
2021/07/17 03:33:30;;;;;;;27.00;9.65;;;;;;;;;;4985156;28;20486;-66
2021/07/17 03:35:57;;;;;;;18.80;8.32;;;;;;;;;;4982559;28;20027;-66
2021/07/17 03:38:23;;;;;;;24.15;9.00;;;;;;;;;;4985274;28;20019;-66
2021/07/17 03:40:49;;;;;;;24.08;10.02;;;;;;;;;;4974896;28;20058;-66
2021/07/17 03:43:16;;;;;;;20.95;8.45;;;;;;;;;;4981863;28;20073;-66
2021/07/17 03:45:42;;;;;;;26.02;9.25;;;;;;;;;;4982980;28;20501;-66
2021/07/17 03:48:08;;;;;;;20.88;9.48;;;;;;;;;;4981058;28;20050;-66
2021/07/17 03:50:34;;;;;;;25.35;9.57;;;;;;;;;;4986448;28;20034;-66
2021/07/17 03:53:00;;;;;;;23.17;9.43;;;;;;;;;;4978927;28;20029;-66
2021/07/17 03:55:27;;;;;;;28.17;9.63;;;;;;;;;;4984913;28;20038;-66
2021/07/17 03:57:53;;;;;;;26.25;9.52;;;;;;;;;;4975525;28;20114;-66
2021/07/17 04:00:21;;;;;;;26.42;9.95;;;;;;;;;;4981124;28;20117;-66
2021/07/17 04:02:47;;;;;;;25.10;9.10;;;;;;;;;;4981952;28;20310;-66
2021/07/17 04:05:14;;;;;;;26.27;9.48;;;;;;;;;;4977995;28;20054;-66
2021/07/17 04:07:40;;;;;;;23.25;10.05;;;;;;;;;;4978677;28;20035;-66
2021/07/17 04:10:07;;;;;;;23.25;9.27;;;;;;;;;;4979793;28;20535;-66
2021/07/17 04:12:33;;;;;;;19.85;10.15;;;;;;;;;;4977303;28;20489;-66
2021/07/17 04:14:59;;;;;;;24.02;9.38;;;;;;;;;;4977342;28;20031;-66
2021/07/17 04:17:25;;;;;;;25.83;9.60;;;;;;;;;;4979356;28;20541;-66
2021/07/17 04:19:52;;;;;;;25.45;9.88;;;;;;;;;;4975824;28;20575;-66
2021/07/17 04:22:18;;;;;;;24.77;8.95;;;;;;;;;;4976943;28;20042;-66
2021/07/17 04:24:44;;;;;;;24.90;8.95;;;;;;;;;;4984695;28;20385;-66
2021/07/17 04:27:11;;;;;;;25.67;9.55;;;;;;;;;;4984460;28;20042;-66
2021/07/17 04:29:37;;;;;;;19.88;8.15;;;;;;;;;;4969415;28;20019;-66
2021/07/17 04:32:03;;;;;;;22.63;9.85;;;;;;;;;;4980710;28;20410;-66
2021/07/17 04:34:29;;;;;;;22.40;9.35;;;;;;;;;;4979196;28;20471;-66
2021/07/17 04:36:55;;;;;;;25.23;9.38;;;;;;;;;;4983408;28;20038;-66
2021/07/17 04:39:23;;;;;;;23.92;10.25;;;;;;;;;;4981621;28;20022;-66
2021/07/17 04:41:49;;;;;;;27.75;9.65;;;;;;;;;;4977754;28;20039;-66
2021/07/17 04:44:15;;;;;;;26.33;9.70;;;;;;;;;;4979535;28;20034;-65
2021/07/17 04:46:41;;;;;;;25.90;9.93;;;;;;;;;;4973482;28;20031;-66
2021/07/17 04:49:07;;;;;;;25.50;10.52;;;;;;;;;;4981124;28;20129;-66
2021/07/17 04:51:35;;;;;;;28.45;9.27;;;;;;;;;;4980384;28;20121;-66
2021/07/17 04:54:01;;;;;;;27.50;9.80;;;;;;;;;;4978561;28;20073;-66
2021/07/17 04:56:27;;;;;;;28.83;10.07;;;;;;;;;;4976019;28;20478;-65
2021/07/17 04:58:53;;;;;;;22.40;9.48;;;;;;;;;;4982494;28;20107;-66
2021/07/17 05:01:19;;;;;;;22.15;10.27;;;;;;;;;;4984810;28;20034;-66
2021/07/17 05:03:45;;;;;;;24.52;10.30;;;;;;;;;;4972124;28;20140;-66
2021/07/17 05:06:11;;;;;;;23.40;10.52;;;;;;;;;;4981850;28;20084;-66
2021/07/17 05:08:37;;;;;;;24.88;9.48;;;;;;;;;;4978306;28;20466;-66
2021/07/17 05:11:03;;;;;;;24.70;9.02;;;;;;;;;;4985382;28;20121;-65
2021/07/17 05:13:29;;;;;;;26.10;9.90;;;;;;;;;;4979621;28;20015;-65
2021/07/17 05:15:55;;;;;;;28.95;10.40;;;;;;;;;;4977595;28;20185;-66
2021/07/17 05:18:21;;;;;;;31.90;9.43;;;;;;;;;;4975240;28;20058;-66
2021/07/17 05:20:48;;;;;;;28.08;9.63;;;;;;;;;;4978307;28;20037;-65
2021/07/17 05:23:18;;;;;;;29.80;10.18;;;;;;;;;;4984863;28;20026;-66
2021/07/17 05:25:44;;;;;;;25.35;9.45;;;;;;;;;;4980390;28;20394;-66
2021/07/17 05:28:13;;;;;;;28.00;10.93;;;;;;;;;;4978316;28;20023;-65
2021/07/17 05:30:39;;;;;;;26.73;9.98;;;;;;;;;;4985804;28;20034;-66
2021/07/17 05:33:05;;;;;;;28.00;9.85;;;;;;;;;;4985620;28;20181;-66
2021/07/17 05:35:32;;;;;;;28.52;10.65;;;;;;;;;;4976504;28;20526;-66
2021/07/17 05:37:58;;;;;;;22.88;9.68;;;;;;;;;;4970447;28;20050;-66
2021/07/17 05:40:24;;;;;;;26.45;10.07;;;;;;;;;;4977921;28;20474;-66
2021/07/17 05:42:50;;;;;;;23.63;9.45;;;;;;;;;;4984908;28;20105;-66
2021/07/17 05:45:19;;;;;;;22.33;9.93;;;;;;;;;;4983572;28;20030;-66
2021/07/17 05:47:45;;;;;;;26.73;9.98;;;;;;;;;;4980663;28;20030;-65
2021/07/17 05:50:13;;;;;;;24.63;9.60;;;;;;;;;;4975190;28;20109;-66
2021/07/17 05:52:39;;;;;;;22.15;9.50;;;;;;;;;;4975956;28;20045;-66
2021/07/17 05:55:05;;;;;;;26.73;9.68;;;;;;;;;;4978706;28;20059;-66
2021/07/17 05:57:34;;;;;;;23.33;9.52;;;;;;;;;;4983383;28;20061;-66
2021/07/17 06:00:00;;;;;;;24.17;10.07;;;;;;;;;;4977186;28;20102;-66
2021/07/17 06:02:27;;;;;;;32.17;11.60;;;;;;;;;;4971063;28;20037;-66
2021/07/17 06:04:54;;;;;;;22.55;10.13;;;;;;;;;;4980340;28;20583;-67
2021/07/17 06:07:20;;;;;;;21.15;8.68;;;;;;;;;;4979946;28;20557;-65
2021/07/17 06:09:46;;;;;;;24.58;8.70;;;;;;;;;;4972946;28;20421;-65
2021/07/17 06:12:14;;;;;;;22.20;9.05;;;;;;;;;;4982605;28;20046;-65
2021/07/17 06:14:41;;;;;;;19.45;9.43;;;;;;;;;;4980302;28;20150;-65
2021/07/17 06:17:11;;;;;;;27.30;9.63;;;;;;;;;;4984582;28;20026;-65
2021/07/17 06:19:40;;;;;;;21.88;9.40;;;;;;;;;;4988230;28;20045;-66
2021/07/17 06:22:06;;;;;;;31.02;10.30;;;;;;;;;;4973550;28;20420;-66
2021/07/17 06:24:32;;;;;;;21.58;8.70;;;;;;;;;;4980105;28;20029;-65
2021/07/17 06:26:58;;;;;;;22.05;7.18;;;;;;;;;;4975386;28;20023;-65
2021/07/17 06:29:24;;;;;;;27.00;8.95;;;;;;;;;;4985374;28;20031;-66
2021/07/17 06:31:50;;;;;;;26.35;10.45;;;;;;;;;;4985383;28;20599;-66
2021/07/17 06:34:16;;;;;;;27.60;9.43;;;;;;;;;;4984477;28;20129;-66
2021/07/17 06:36:42;;;;;;;25.13;9.95;;;;;;;;;;4979179;28;20460;-66
2021/07/17 06:39:08;;;;;;;23.33;9.30;;;;;;;;;;4979769;28;20113;-66
2021/07/17 06:41:34;;;;;;;25.65;9.35;;;;;;;;;;4982481;28;20027;-66
2021/07/17 06:44:00;;;;;;;26.60;9.93;;;;;;;;;;4986587;28;20058;-66
2021/07/17 06:46:26;;;;;;;24.13;9.65;;;;;;;;;;4978251;28;20245;-65
2021/07/17 06:48:52;;;;;;;33.60;11.35;;;;;;;;;;4980636;28;20079;-65
2021/07/17 06:51:18;;;;;;;27.17;10.15;;;;;;;;;;4980894;28;20119;-66
2021/07/17 06:53:44;;;;;;;26.33;10.15;;;;;;;;;;4986211;28;20098;-65
2021/07/17 06:56:13;;;;;;;26.55;11.10;;;;;;;;;;4983393;28;20479;-65
2021/07/17 06:58:38;;;;;;;25.95;9.75;;;;;;;;;;4985675;28;20031;-65
2021/07/17 07:01:05;;;;;;;26.83;9.48;;;;;;;;;;4987267;28;20087;-65
2021/07/17 07:03:31;;;;;;;27.73;9.85;;;;;;;;;;4983439;28;20026;-66
2021/07/17 07:05:57;;;;;;;27.23;9.95;;;;;;;;;;4983806;28;20108;-66
2021/07/17 07:08:23;;;;;;;26.83;9.82;;;;;;;;;;4985862;28;20023;-66
2021/07/17 07:10:49;;;;;;;24.92;9.18;;;;;;;;;;4984318;28;20038;-67
2021/07/17 07:13:16;;;;;;;23.40;9.20;;;;;;;;;;4985799;28;20110;-66
2021/07/17 07:15:42;;;;;;;28.08;9.88;;;;;;;;;;4982650;28;20059;-66
2021/07/17 07:18:08;;;;;;;29.90;10.07;;;;;;;;;;4979967;28;20078;-66
2021/07/17 07:20:35;;;;;;;28.73;10.07;;;;;;;;;;4988861;28;20022;-66
2021/07/17 07:23:02;;;;;;;26.90;9.95;;;;;;;;;;4984164;28;20034;-67
2021/07/17 07:25:28;;;;;;;29.58;9.93;;;;;;;;;;4990074;28;20031;-66
2021/07/17 07:27:55;;;;;;;30.23;9.48;;;;;;;;;;4983180;28;20204;-67
2021/07/17 07:30:21;;;;;;;24.70;8.48;;;;;;;;;;4984586;28;20033;-67
2021/07/17 07:32:49;;;;;;;27.10;9.43;;;;;;;;;;4987613;28;20042;-67
2021/07/17 07:35:16;;;;;;;24.88;9.32;;;;;;;;;;4985602;28;20027;-66
2021/07/17 07:37:43;;;;;;;29.08;10.20;;;;;;;;;;4977708;28;20035;-66
2021/07/17 07:40:10;;;;;;;30.05;9.93;;;;;;;;;;4983962;28;20019;-67
2021/07/17 07:42:36;;;;;;;26.40;10.00;;;;;;;;;;4982634;28;20080;-67
2021/07/17 07:45:02;;;;;;;27.88;9.50;;;;;;;;;;4979532;28;20018;-66
2021/07/17 07:47:30;;;;;;;23.17;9.93;;;;;;;;;;4982940;28;20030;-66
2021/07/17 07:49:57;;;;;;;26.17;9.95;;;;;;;;;;4981801;28;20022;-67
2021/07/17 07:52:23;;;;;;;26.02;10.05;;;;;;;;;;4980095;28;20389;-66
2021/07/17 07:54:49;;;;;;;31.15;11.68;;;;;;;;;;4982796;28;20109;-67
2021/07/17 07:57:15;;;;;;;32.50;10.52;;;;;;;;;;4977664;28;20527;-66
2021/07/17 07:59:42;;;;;;;26.10;10.13;;;;;;;;;;4986463;28;20505;-75
2021/07/17 08:02:08;;;;;;;31.67;11.35;;;;;;;;;;4987277;28;20023;-79
2021/07/17 08:04:34;;;;;;;23.60;10.73;;;;;;;;;;4982055;28;20123;-74
2021/07/17 08:07:00;;;;;;;27.55;10.18;;;;;;;;;;4974362;28;20495;-75
2021/07/17 08:09:26;;;;;;;27.13;10.13;;;;;;;;;;4980645;28;20379;-74
2021/07/17 08:11:54;;;;;;;24.65;9.02;;;;;;;;;;4977389;28;20050;-75
2021/07/17 08:14:21;;;;;;;27.08;11.23;;;;;;;;;;4972143;28;20106;-75
2021/07/17 08:16:47;;;;;;;26.95;10.68;;;;;;;;;;4978668;28;20063;-76
2021/07/17 08:19:13;;;;;;;24.50;10.32;;;;;;;;;;4972426;28;20057;-75
2021/07/17 08:21:40;;;;;;;28.00;10.00;;;;;;;;;;4975557;28;20552;-75
2021/07/17 08:24:09;;;;;;;31.85;11.75;;;;;;;;;;4974637;28;20351;-75
2021/07/17 08:26:36;;;;;;;23.23;9.68;;;;;;;;;;4975029;28;20125;-75
2021/07/17 08:29:03;;;;;;;22.92;9.63;;;;;;;;;;4973683;28;20062;-76
2021/07/17 08:31:29;;;;;;;27.17;9.20;;;;;;;;;;4972663;28;20034;-75
2021/07/17 08:33:55;;;;;;;21.20;9.45;;;;;;;;;;4978125;28;20054;-75
2021/07/17 08:36:21;;;;;;;22.90;10.18;;;;;;;;;;4972034;28;20035;-76
2021/07/17 08:38:47;;;;;;;20.55;8.50;;;;;;;;;;4981431;28;20034;-75
2021/07/17 08:41:14;;;;;;;22.23;8.50;;;;;;;;;;4976447;28;20053;-76
2021/07/17 08:43:42;;;;;;;22.20;8.73;;;;;;;;;;4981154;28;20035;-76
2021/07/17 08:46:08;;;;;;;22.08;8.27;;;;;;;;;;4982710;28;20118;-76
2021/07/17 08:48:34;;;;;;;18.58;8.80;;;;;;;;;;4983399;28;20022;-77
2021/07/17 08:51:00;;;;;;;17.40;8.90;;;;;;;;;;4977204;28;20383;-76
2021/07/17 08:53:27;;;;;;;30.30;14.57;;;;;;;;;;4980400;28;20022;-76
2021/07/17 08:55:54;;;;;;;30.55;12.70;;;;;;;;;;4970990;28;20027;-74
2021/07/17 08:58:20;;;;;;;25.02;13.15;;;;;;;;;;4980252;28;20097;-76
2021/07/17 09:00:46;;;;;;;33.55;15.15;;;;;;;;;;4982391;28;20033;-72
2021/07/17 09:03:14;;;;;;;36.45;15.48;;;;;;;;;;4985069;28;20034;-72
2021/07/17 09:05:44;;;;;;;31.13;16.20;;;;;;;;;;4973214;28;20051;-72
2021/07/17 09:08:11;;;;;;;35.45;15.88;;;;;;;;;;4976314;28;20482;-72
2021/07/17 09:10:37;;;;;;;34.75;19.00;;;;;;;;;;4982625;28;20031;-72
2021/07/17 09:13:09;;;;;;;34.85;19.25;;;;;;;;;;4972848;28;20054;-72
2021/07/17 09:15:35;;;;;;;35.33;17.48;;;;;;;;;;4978562;28;20542;-72
2021/07/17 09:18:03;;;;;;;33.30;16.38;;;;;;;;;;4973730;28;20365;-72
2021/07/17 09:20:29;;;;;;;24.75;14.45;;;;;;;;;;4979633;28;20050;-73
2021/07/17 09:22:59;;;;;;;28.08;11.73;;;;;;;;;;4975678;28;20639;-73
2021/07/17 09:25:33;;;;;;;30.40;13.82;;;;;;;;;;4975253;28;20022;-73
2021/07/17 09:28:15;;;;;;;24.65;13.07;;;;;;;;;;4979058;28;20501;-73
2021/07/17 09:30:41;;;;;;;24.77;11.65;;;;;;;;;;4978003;28;20083;-73
2021/07/17 09:33:07;;;;;;;23.55;12.13;;;;;;;;;;4977912;28;20030;-73
2021/07/17 09:35:35;;;;;;;22.90;12.70;;;;;;;;;;4978157;28;20096;-73
2021/07/17 09:38:03;;;;;;;23.63;11.40;;;;;;;;;;4974532;28;20085;-73
2021/07/17 09:40:43;;;;;;;25.17;11.90;;;;;;;;;;4981842;28;20026;-73
2021/07/17 09:43:09;;;;;;;;;;;;;;;;;;4982952;28;20019;-73
2021/07/17 09:45:39;;;;;;;19.95;11.38;;;;;;;;;;4984768;28;19917;-73
2021/07/17 09:48:24;;;;;;;23.77;12.20;;;;;;;;;;4974148;28;20486;-73
2021/07/17 09:50:50;;;;;;;22.98;10.85;;;;;;;;;;4977206;28;20029;-66
2021/07/17 09:53:35;;;;;;;19.83;10.95;;;;;;;;;;4979851;28;20030;-66
2021/07/17 09:56:07;;;;;;;21.08;10.05;;;;;;;;;;4974521;28;20030;-66
2021/07/17 09:58:33;;;;;;;20.20;10.43;;;;;;;;;;4970981;28;20061;-66
2021/07/17 10:01:19;;;;;;;18.45;8.65;;;;;;;;;;4973405;28;20023;-66
2021/07/17 10:03:46;;;;;;;14.07;7.30;;;;;;;;;;4982058;28;20031;-66
2021/07/17 10:06:25;;;;;;;14.55;6.95;;;;;;;;;;4977081;28;20172;-66
2021/07/17 10:08:51;;;;;;;11.83;6.03;;;;;;;;;;4979341;28;20027;-66
2021/07/17 10:11:22;;;;;;;16.02;6.15;;;;;;;;;;4979897;28;20569;-67
2021/07/17 10:13:48;;;;;;;14.20;6.13;;;;;;;;;;4974340;28;20062;-66
2021/07/17 10:16:19;;;;;;;14.70;5.82;;;;;;;;;;4982482;28;20094;-66
2021/07/17 10:18:45;;;;;;;15.32;5.43;;;;;;;;;;4972421;28;20027;-66
2021/07/17 10:21:12;;;;;;;15.25;7.03;;;;;;;;;;4986194;28;20038;-66
2021/07/17 10:23:38;;;;;;;12.80;5.72;;;;;;;;;;4978151;28;20460;-66
2021/07/17 10:26:04;;;;;;;14.77;5.75;;;;;;;;;;4981698;28;20035;-67
2021/07/17 10:28:30;;;;;;;11.68;5.05;;;;;;;;;;4983984;28;20030;-66
2021/07/17 10:30:58;;;;;;;15.88;6.03;;;;;;;;;;4976086;28;20041;-66
2021/07/17 10:33:24;;;;;;;15.98;6.20;;;;;;;;;;4974133;28;20049;-67
2021/07/17 10:35:51;;;;;;;16.95;5.65;;;;;;;;;;4976813;28;20029;-67
2021/07/17 10:38:18;;;;;;;15.05;6.07;;;;;;;;;;4973138;28;20555;-66
2021/07/17 10:40:46;;;;;;;16.23;6.55;;;;;;;;;;4975168;28;20027;-66
2021/07/17 10:43:13;;;;;;;14.43;5.75;;;;;;;;;;4985686;28;20099;-66
2021/07/17 10:45:43;;;;;;;18.85;5.93;;;;;;;;;;4984330;28;20030;-66
2021/07/17 10:48:23;;;;;;;12.60;5.55;;;;;;;;;;4986076;28;20027;-67
2021/07/17 10:50:49;;;;;;;14.05;5.53;;;28.10;99.90;;;;;;4982079;28;20061;-67
2021/07/17 10:53:49;;;;;;;16.08;6.25;;;28.40;99.90;;;;;;4971201;28;20474;-66
2021/07/17 10:56:27;;;;;;;12.20;5.45;;;28.40;99.90;;;;;;4983401;28;20033;-66
2021/07/17 10:58:59;;;;;;;12.55;4.97;;;28.20;99.90;;;;;;4978775;28;20509;-67
2021/07/17 11:01:26;;;;;;;11.68;4.82;;;28.60;99.90;;;;;;4977051;28;20106;-66
2021/07/17 11:03:53;;;;;;;14.35;5.10;;;29.20;99.90;;;;;;4977889;28;20035;-66
2021/07/17 11:06:29;;;;;;;17.20;5.05;;;28.50;99.90;;;;;;4974916;28;20158;-66
2021/07/17 11:08:56;;;;;;;9.18;3.78;;;29.00;99.90;;;;;;4976596;28;20023;-67
2021/07/17 11:11:28;;;;;;;9.30;3.45;;;29.60;99.90;;;;;;4979393;28;20055;-66
2021/07/17 11:13:55;;;;;;;10.02;3.95;;;30.10;99.90;;;;;;4969240;28;20036;-66
2021/07/17 11:16:59;;;;;;;12.65;3.83;;;29.80;98.70;;;;;;4979418;28;20118;-67
2021/07/17 11:19:26;;;;;;;9.23;3.95;;;30.00;99.00;;;;;;4979570;28;20027;-66
2021/07/17 11:21:53;;;;;;;9.73;3.88;;;29.30;97.80;;;;;;4977682;28;20023;-66
2021/07/17 11:24:22;;;;;;;10.73;3.75;;;28.40;98.00;;;;;;4978108;28;20058;-66
2021/07/17 11:27:10;;;;;;;8.45;3.50;;;28.10;99.10;;;;;;4977526;28;20073;-66
2021/07/17 11:29:45;;;;;;;9.73;3.53;;;27.60;99.30;;;;;;4978523;28;20029;-66
2021/07/17 11:32:12;;;;;;;10.95;3.30;;;27.10;99.90;;;;;;4979505;28;20740;-66
2021/07/17 11:34:56;;;;;;;9.45;3.15;;;27.30;99.90;;;;;;4980907;28;20037;-66
2021/07/17 11:37:26;;;;;;;9.23;2.72;;;28.30;97.50;;;;;;4983534;28;20031;-66
2021/07/17 11:39:55;;;;;;;10.23;2.50;;;30.00;95.60;;;;;;4980049;28;20031;-66
2021/07/17 11:42:21;;;;;;;11.10;3.13;;;29.90;95.70;;;;;;4978678;28;20033;-66
2021/07/17 11:44:51;;;;;;;10.82;2.80;;;28.70;96.40;;;;;;4977609;28;20091;-67
2021/07/17 11:47:19;;;;;;;10.13;3.17;;;28.70;97.30;;;;;;4979249;28;20034;-69
2021/07/17 11:49:52;;;;;;;10.00;2.50;;;28.70;97.10;;;;;;4974595;28;20049;-69
2021/07/17 11:52:29;;;;;;;9.80;2.58;;;29.50;97.40;;;;;;4981154;28;20629;-73
2021/07/17 11:55:00;;;;;;;7.40;1.95;;;30.20;95.90;;;;;;4978421;28;20175;-73
2021/07/17 11:57:28;;;;;;;6.88;2.33;;;29.90;94.90;;;;;;4981623;28;20185;-73
2021/07/17 11:59:54;;;;;;;7.63;2.57;;;30.50;94.70;;;;;;4982121;28;20402;-73
2021/07/17 12:02:22;;;;;;;8.50;2.42;;;30.80;95.10;;;;;;4973818;28;20027;-73
2021/07/17 12:04:50;;;;;;;8.95;2.67;;;31.80;92.80;;;;;;4977790;28;20501;-73
2021/07/17 12:07:23;;;;;;;8.13;2.40;;;31.90;93.30;;;;;;4978403;28;20054;-73
2021/07/17 12:09:52;;;;;;;7.15;2.45;;;31.30;92.70;;;;;;4974029;28;20649;-73
2021/07/17 12:12:22;;;;;;;10.68;2.50;;;30.80;92.70;;;;;;4975971;28;20031;-73
2021/07/17 12:15:11;;;;;;;8.98;2.22;;;30.70;92.10;;;;;;4984808;28;20117;-72
2021/07/17 12:17:50;;;;;;;;;;;30.50;92.90;;;;;;4983605;28;20026;-72
2021/07/17 12:20:20;;;;;;;7.18;1.60;;;30.20;93.30;;;;;;4977284;28;19965;-72
2021/07/17 12:22:58;;;;;;;8.20;2.17;;;29.90;91.80;;;;;;4974556;28;20027;-73
2021/07/17 12:25:33;;;;;;;6.63;2.08;;;30.60;92.70;;;;;;4983613;28;20029;-72
2021/07/17 12:28:07;;;;;;;6.53;2.22;;;31.30;91.20;;;;;;4982773;28;20057;-73
2021/07/17 12:30:37;;;;;;;8.40;1.80;;;31.50;91.20;;;;;;4982006;28;20037;-73
2021/07/17 12:33:09;;;;;;;;;;;31.20;91.50;;;;;;4979769;28;20030;-73
2021/07/17 12:35:35;;;;;;;6.88;2.03;;;31.90;90.30;;;;;;4979907;28;20322;-73
2021/07/17 12:38:33;;;;;;;9.00;2.35;;;32.30;89.30;;;;;;4981059;28;20027;-73
2021/07/17 12:41:05;;;;;;;6.07;1.85;;;31.30;89.20;;;;;;4976614;28;20058;-73
2021/07/17 12:43:32;;;;;;;6.50;1.60;;;31.70;88.40;;;;;;4973307;28;20031;-73
2021/07/17 12:46:05;;;;;;;5.40;1.70;;;32.10;88.30;;;;;;4973724;28;20114;-73
2021/07/17 12:48:57;;;;;;;7.30;1.80;;;32.20;86.70;;;;;;4978457;28;20034;-73
2021/07/17 12:51:26;;;;;;;8.32;1.90;;;32.00;87.70;;;;;;4971868;28;20162;-73
2021/07/17 12:53:54;;;;;;;5.87;2.10;;;31.80;87.00;;;;;;4979766;28;20034;-73
2021/07/17 12:56:30;;;;;;;6.75;2.28;;;31.40;87.90;;;;;;4974570;28;20278;-73
2021/07/17 12:58:57;;;;;;;6.65;2.05;;;31.20;89.90;;;;;;4972775;28;20377;-73
2021/07/17 13:01:23;;;;;;;7.40;1.92;;;30.80;88.50;;;;;;4978601;28;20092;-73
2021/07/17 13:03:49;;;;;;;8.88;2.00;;;31.30;89.40;;;;;;4975746;28;20033;-73
2021/07/17 13:06:15;;;;;;;5.60;1.85;;;32.40;88.00;;;;;;4977622;28;20394;-73
2021/07/17 13:08:41;;;;;;;6.60;1.58;;;33.10;85.90;;;;;;4978650;28;20022;-73
2021/07/17 13:11:16;;;;;;;7.13;1.77;;;33.90;82.50;;;;;;4971584;28;20141;-73
2021/07/17 13:13:42;;;;;;;6.68;1.80;;;32.50;83.00;;;;;;4976588;28;20050;-73
2021/07/17 13:16:07;;;;;;;8.50;1.80;;;32.20;81.00;;;;;;4976179;28;20065;-73
2021/07/17 13:18:33;;;;;;;5.53;1.38;;;31.90;82.40;;;;;;4980163;28;20022;-73
2021/07/17 13:21:18;;;;;;;8.63;1.80;;;31.80;85.20;;;;;;4980510;28;20054;-73
2021/07/17 13:23:58;;;;;;;6.03;1.73;;;31.80;81.10;;;;;;4983674;28;20031;-73
2021/07/17 13:26:27;;;;;;;7.55;1.65;;;31.10;84.50;;;;;;4978050;28;20042;-73
2021/07/17 13:28:55;;;;;;;6.63;1.90;;;31.60;84.20;;;;;;4985001;28;20542;-73
2021/07/17 13:31:28;;;;;;;6.53;1.90;;;32.80;82.80;;;;;;4979119;28;20061;-73
2021/07/17 13:34:11;;;;;;;6.25;1.92;;;32.80;82.40;;;;;;4974126;28;20065;-73
2021/07/17 13:36:49;;;;;;;5.45;1.55;;;32.40;81.50;;;;;;4973946;28;20325;-73
2021/07/17 13:39:15;;;;;;;6.10;1.80;;;32.00;81.20;;;;;;4976537;28;20497;-73
2021/07/17 13:41:40;;;;;;;5.40;1.30;;;33.20;81.90;;;;;;4972629;28;20038;-73
2021/07/17 13:44:14;;;;;;;5.55;1.70;;;32.90;79.70;;;;;;4979274;28;20106;-73
2021/07/17 13:46:40;;;;;;;7.38;1.73;;;32.90;80.30;;;;;;4978131;28;20465;-73
2021/07/17 13:49:18;;;;;;;6.75;1.73;;;32.60;80.20;;;;;;4982629;28;20023;-73
2021/07/17 13:51:44;;;;;;;9.65;2.30;;;31.70;81.40;;;;;;4988138;28;20033;-73
2021/07/17 13:54:10;;;;;;;6.05;1.67;;;31.80;82.90;;;;;;4985376;28;20424;-74
2021/07/17 13:56:38;;;;;;;6.05;1.70;;;32.70;81.30;;;;;;4987172;28;20034;-74
2021/07/17 13:59:06;;;;;;;5.20;1.80;;;32.90;81.20;;;;;;4982837;28;20022;-73
2021/07/17 14:01:33;;;;;;;5.03;1.73;;;32.50;81.20;;;;;;4981724;28;20435;-73
2021/07/17 14:04:00;;;;;;;6.05;1.88;;;32.30;82.00;;;;;;4981954;28;20030;-73